Time;durP1;ratioP1;P1;durP2;ratioP2;P2;SDS_P1;SDS_P2;PMS_P1;PMS_P2;Temp;Humidity;BMP_temperature;BMP_pressure;BME280_temperature;BME280_humidity;BME280_pressure;Samples;Min_cycle;Max_cycle;Signal;HPM_P1;HPM_P2
2021/03/22 00:02:23;;;;;;;41.53;21.57;;;;;;;3.29;72.87;101169.22;1746232;82;21301;-73
2021/03/22 00:04:56;;;;;;;40.47;21.43;;;;;;;3.37;73.00;101168.53;1728610;82;21427;-73
2021/03/22 00:07:28;;;;;;;47.37;21.03;;;;;;;3.43;72.87;101164.16;1716428;83;21214;-73
2021/03/22 00:10:02;;;;;;;40.23;20.60;;;;;;;3.39;72.75;101159.60;1716312;83;21191;-74
2021/03/22 00:12:36;;;;;;;45.08;20.25;;;;;;;3.39;72.78;101156.00;1716883;83;21685;-74
2021/03/22 00:15:12;;;;;;;40.57;20.80;;;;;;;3.36;72.71;101153.13;1716454;83;21373;-74
2021/03/22 00:17:45;;;;;;;40.57;21.00;;;;;;;3.37;72.78;101143.02;1716431;83;21207;-73
2021/03/22 00:20:20;;;;;;;40.52;20.88;;;;;;;3.38;72.79;101133.73;1716629;83;21356;-74
2021/03/22 00:22:53;;;;;;;44.93;22.57;;;;;;;3.47;73.05;101132.50;1716557;83;21243;-73
2021/03/22 00:25:27;;;;;;;37.80;21.02;;;;;;;3.61;73.00;101130.16;1716683;83;21194;-73
2021/03/22 00:28:00;;;;;;;45.08;21.55;;;;;;;3.72;72.80;101124.08;1716548;83;21186;-73
2021/03/22 00:30:37;;;;;;;49.20;22.40;;;;;;;3.80;72.57;101118.39;1716479;83;21709;-74
2021/03/22 00:33:12;;;;;;;40.53;21.60;;;;;;;3.86;72.38;101116.20;1716606;83;21360;-72
2021/03/22 00:35:48;;;;;;;36.93;21.90;;;;;;;3.91;72.16;101115.88;1716452;83;21215;-73
2021/03/22 00:38:20;;;;;;;44.63;21.63;;;;;;;3.87;72.04;101109.64;1716459;83;21423;-75
2021/03/22 00:40:57;;;;;;;43.97;22.37;;;;;;;3.84;72.19;101108.70;1716091;83;21230;-74
2021/03/22 00:43:29;;;;;;;37.43;21.30;;;;;;;3.89;72.11;101108.90;1716853;83;22056;-72
2021/03/22 00:46:03;;;;;;;50.73;22.93;;;;;;;3.93;72.02;101103.33;1716239;83;22413;-72
2021/03/22 00:48:37;;;;;;;;;;;;;;;3.95;71.82;101091.08;1718965;83;21444;-72
2021/03/22 00:51:09;;;;;;;40.97;20.60;;;;;;;4.00;71.77;101089.08;1711346;82;20257;-73
2021/03/22 00:53:42;;;;;;;62.23;21.60;;;;;;;4.05;71.83;101093.42;1718363;83;21328;-71
2021/03/22 00:56:14;;;;;;;41.77;21.40;;;;;;;4.12;71.76;101092.39;1711580;83;21336;-71
2021/03/22 00:58:47;;;;;;;44.53;19.77;;;;;;;4.19;71.72;101095.98;1707319;83;21428;-71
2021/03/22 01:01:19;;;;;;;42.63;22.00;;;;;;;4.18;71.51;101086.57;1700678;84;21368;-73
2021/03/22 01:03:52;;;;;;;49.38;22.42;;;;;;;4.12;71.43;101087.41;1700779;84;21217;-74
2021/03/22 01:06:25;;;;;;;43.90;21.07;;;;;;;4.09;71.50;101083.17;1700829;84;21554;-74
2021/03/22 01:08:58;;;;;;;46.42;23.35;;;;;;;4.04;71.55;101076.08;1700866;84;21229;-77
2021/03/22 01:11:31;;;;;;;51.00;22.93;;;;;;;3.99;71.61;101072.28;1700828;84;21848;-74
2021/03/22 01:14:03;;;;;;;45.73;20.67;;;;;;;3.93;71.71;101072.61;1700918;84;21217;-75
2021/03/22 01:16:38;;;;;;;56.90;25.13;;;;;;;3.89;71.89;101067.71;1701002;84;21400;-75
2021/03/22 01:19:17;;;;;;;60.27;24.57;;;;;;;3.83;72.08;101061.17;1700732;84;21360;-76
2021/03/22 01:21:53;;;;;;;78.63;29.37;;;;;;;3.80;72.23;101060.73;1700793;84;21876;-75
2021/03/22 01:24:27;;;;;;;87.33;30.93;;;;;;;3.73;72.39;101056.59;1700782;84;21404;-75
2021/03/22 01:27:04;;;;;;;113.03;38.23;;;;;;;3.69;72.54;101057.22;1700843;84;21336;-77
2021/03/22 01:29:41;;;;;;;74.07;28.53;;;;;;;3.62;72.70;101044.01;1700880;84;21364;-77
2021/03/22 01:32:14;;;;;;;79.00;29.03;;;;;;;3.59;72.87;101041.66;1700565;84;21253;-74
2021/03/22 01:34:47;;;;;;;79.60;29.98;;;;;;;3.58;73.01;101044.09;1700972;84;21865;-72
2021/03/22 01:37:20;;;;;;;74.53;29.85;;;;;;;3.57;73.15;101032.80;1700834;84;21407;-74
2021/03/22 01:39:53;;;;;;;80.50;30.03;;;;;;;3.58;73.27;101033.98;1701067;84;21965;-74
2021/03/22 01:42:36;;;;;;;72.60;30.03;;;;;;;3.59;73.36;101032.91;1700650;84;21277;-73
2021/03/22 01:45:10;;;;;;;57.17;26.30;;;;;;;3.70;73.47;101028.71;1698493;84;21249;-74
2021/03/22 01:47:42;;;;;;;67.82;27.77;;;;;;;3.77;73.36;101024.94;1700846;84;21547;-73
2021/03/22 01:50:28;;;;;;;57.88;26.15;;;;;;;3.83;73.29;101022.73;1700842;84;21356;-73
2021/03/22 01:53:01;;;;;;;54.40;26.23;;;;;;;3.94;73.28;101022.63;1718264;82;21312;-74
2021/03/22 01:55:33;;;;;;;56.60;26.05;;;;;;;3.97;73.26;101020.30;1730879;83;21198;-74
2021/03/22 01:58:06;;;;;;;57.30;26.77;;;;;;;4.07;73.37;101026.75;1730581;83;21209;-74
2021/03/22 02:00:39;;;;;;;55.13;25.97;;;;;;;4.20;73.25;101022.64;1730731;83;21237;-73
2021/03/22 02:03:17;;;;;;;55.78;25.90;;;;;;;4.30;72.99;101018.43;1730876;83;21210;-73
2021/03/22 02:05:50;;;;;;;54.97;26.20;;;;;;;4.40;72.76;101018.00;1730572;83;21758;-73
2021/03/22 02:08:40;;;;;;;64.60;27.63;;;;;;;4.45;72.50;101011.34;1730463;83;21229;-74
2021/03/22 02:11:29;;;;;;;56.63;26.02;;;;;;;4.51;72.28;101018.70;1730667;83;21221;-75
2021/03/22 02:14:05;;;;;;;49.03;23.37;;;;;;;4.55;72.09;101017.23;1730545;83;21213;-74
2021/03/22 02:16:58;;;;;;;57.30;26.13;;;;;;;4.61;72.07;101012.25;1730629;83;21221;-72
2021/03/22 02:20:27;;;;;;;58.53;25.27;;;;;;;4.57;71.82;101010.98;1730316;83;21264;-73
2021/03/22 02:23:23;;;;;;;50.77;24.87;;;;;;;4.50;71.81;101003.28;1730447;83;21201;-73
2021/03/22 02:26:00;;;;;;;46.27;22.80;;;;;;;4.42;71.87;101004.88;1730456;83;21280;-74
2021/03/22 02:28:45;;;;;;;46.50;22.30;;;;;;;4.38;71.93;101004.47;1728473;83;21210;-74
2021/03/22 02:31:37;;;;;;;41.45;21.68;;;;;;;4.33;72.00;101000.68;1727512;83;21722;-74
2021/03/22 02:34:28;;;;;;;46.97;24.43;;;;;;;4.33;72.06;101000.68;1730579;83;21213;-73
2021/03/22 02:37:20;;;;;;;51.50;23.93;;;;;;;4.30;72.13;100996.97;1730756;83;21723;-74
2021/03/22 02:40:13;;;;;;;47.63;23.80;;;;;;;4.32;72.31;100999.82;1727390;83;21221;-73
2021/03/22 02:42:47;;;;;;;53.97;23.43;;;;;;;4.43;72.51;100996.95;1727660;83;21201;-74
2021/03/22 02:45:24;;;;;;;48.47;24.23;;;;;;;4.53;72.48;100990.50;1730549;83;21806;-73
2021/03/22 02:47:59;;;;;;;43.27;23.77;;;;;;;4.61;72.33;100986.99;1730883;83;21374;-74
2021/03/22 02:50:36;;;;;;;47.05;24.95;;;;;;;4.66;72.11;100989.09;1730961;83;21343;-73
2021/03/22 02:53:24;;;;;;;52.43;26.17;;;;;;;4.69;71.96;100979.87;1730571;82;21272;-73
2021/03/22 02:56:28;;;;;;;54.37;23.07;;;;;;;4.71;71.83;100982.42;1730816;83;21217;-73
2021/03/22 02:59:11;;;;;;;49.90;24.67;;;;;;;4.73;71.77;100978.91;1674228;83;21765;-72
2021/03/22 03:01:54;;;;;;;52.47;25.40;;;;;;;4.80;71.78;100977.84;1730696;83;21717;-73
2021/03/22 03:04:27;;;;;;;48.23;25.47;;;;;;;4.86;71.67;100970.62;1730522;82;21186;-72
2021/03/22 03:07:02;;;;;;;45.50;24.20;;;;;;;4.92;71.56;100961.50;1730792;83;21336;-74
2021/03/22 03:09:39;;;;;;;51.13;23.53;;;;;;;4.92;71.42;100957.38;1730670;83;21249;-75
2021/03/22 03:12:19;;;;;;;47.63;23.03;;;;;;;4.90;71.35;100951.26;1730988;83;21258;-72
2021/03/22 03:14:56;;;;;;;47.83;23.40;;;;;;;4.89;71.27;100949.58;1730769;83;21198;-72
2021/03/22 03:17:30;;;;;;;45.63;22.80;;;;;;;4.86;71.13;100954.12;1728920;83;21209;-73
2021/03/22 03:20:04;;;;;;;44.20;21.67;;;;;;;4.82;71.14;100948.76;1730671;83;21722;-72
2021/03/22 03:22:39;;;;;;;41.30;21.87;;;;;;;4.81;71.16;100949.80;1730707;83;21209;-73
2021/03/22 03:25:12;;;;;;;40.17;21.47;;;;;;;4.85;71.26;100942.81;1730669;83;21300;-74
2021/03/22 03:27:45;;;;;;;;;;;;;;;4.90;71.19;100936.13;1733385;83;21224;-73
2021/03/22 03:30:24;;;;;;;45.57;22.40;;;;;;;4.96;71.03;100941.59;1730411;83;20294;-73
2021/03/22 03:32:57;;;;;;;44.87;23.60;;;;;;;4.97;70.94;100947.43;1717913;83;21320;-74
2021/03/22 03:35:34;;;;;;;45.70;23.47;;;;;;;4.99;70.84;100938.93;1688149;84;21839;-74
2021/03/22 03:38:07;;;;;;;41.77;24.10;;;;;;;4.98;70.83;100940.86;1719730;82;21202;-72
2021/03/22 03:40:44;;;;;;;49.15;24.12;;;;;;;4.95;70.84;100941.28;1689815;84;21354;-75
2021/03/22 03:43:17;;;;;;;42.43;22.17;;;;;;;4.93;70.86;100939.80;1729989;83;21809;-72
2021/03/22 03:45:52;;;;;;;61.88;25.02;;;;;;;4.92;70.94;100938.13;1747999;82;21187;-74
2021/03/22 03:48:29;;;;;;;49.83;24.43;;;;;;;4.91;70.94;100935.92;1725894;81;21344;-72
2021/03/22 03:51:03;;;;;;;48.48;24.57;;;;;;;4.95;71.05;100931.65;1718237;83;21874;-71
2021/03/22 03:53:35;;;;;;;52.10;28.13;;;;;;;5.02;71.05;100930.26;1686933;84;21274;-76
2021/03/22 03:56:08;;;;;;;57.87;28.43;;;;;;;5.05;71.03;100931.19;1731907;82;21220;-73
2021/03/22 03:58:40;;;;;;;57.83;30.83;;;;;;;5.06;70.94;100930.14;1679146;84;21217;-73
2021/03/22 04:01:13;;;;;;;76.47;32.13;;;;;;;5.04;70.98;100932.25;1681097;84;22199;-72
2021/03/22 04:03:46;;;;;;;74.40;32.42;;;;;;;4.98;71.03;100929.86;1679623;84;21740;-72
2021/03/22 04:06:25;;;;;;;58.20;28.67;;;;;;;4.93;71.21;100926.05;1672745;86;21223;-74
2021/03/22 04:09:02;;;;;;;69.27;30.60;;;;;;;4.91;71.34;100915.30;1672586;86;21222;-73
2021/03/22 04:11:41;;;;;;;54.03;27.90;;;;;;;4.96;71.55;100911.87;1698607;84;21365;-72
2021/03/22 04:14:28;;;;;;;61.07;27.60;;;;;;;5.02;71.51;100915.95;1689725;84;21365;-73
2021/03/22 04:17:00;;;;;;;57.35;29.48;;;;;;;5.07;71.44;100908.45;1672583;84;21740;-73
2021/03/22 04:19:33;;;;;;;63.80;26.95;;;;;;;5.12;71.34;100910.01;1672687;84;21227;-72
2021/03/22 04:22:06;;;;;;;52.30;26.87;;;;;;;5.12;71.20;100913.59;1672580;84;21219;-73
2021/03/22 04:24:39;;;;;;;56.58;26.65;;;;;;;5.12;71.18;100921.02;1672635;85;21259;-71
2021/03/22 04:27:11;;;;;;;69.10;27.83;;;;;;;5.13;71.22;100921.32;1672847;86;21318;-72
2021/03/22 04:29:44;;;;;;;51.18;23.20;;;;;;;5.11;71.22;100914.66;1700860;84;21354;-74
2021/03/22 04:32:17;;;;;;;49.65;25.30;;;;;;;5.13;71.33;100912.52;1726255;82;21274;-74
2021/03/22 04:34:49;;;;;;;53.65;26.90;;;;;;;5.18;71.42;100918.73;1682561;84;21439;-73
2021/03/22 04:37:22;;;;;;;50.70;25.72;;;;;;;5.24;71.36;100920.60;1674504;85;21234;-72
2021/03/22 04:39:56;;;;;;;59.87;27.90;;;;;;;5.31;71.24;100922.26;1718162;83;21828;-72
2021/03/22 04:42:29;;;;;;;65.15;26.50;;;;;;;5.34;71.11;100907.21;1726628;82;21203;-74
2021/03/22 04:45:01;;;;;;;64.07;27.98;;;;;;;5.37;71.08;100903.48;1698177;84;21420;-74
2021/03/22 04:47:34;;;;;;;81.85;33.60;;;;;;;5.42;70.98;100902.81;1699512;84;21698;-74
2021/03/22 04:50:08;;;;;;;54.77;26.25;;;;;;;5.41;70.84;100903.88;1700900;84;21353;-75
2021/03/22 04:52:40;;;;;;;;;;;;;;;5.39;70.79;100907.40;1750251;82;21701;-75
2021/03/22 04:55:13;;;;;;;65.47;25.80;;;;;;;5.41;70.82;100905.26;1732420;81;20281;-74
2021/03/22 04:57:46;;;;;;;;;;;;;;;5.42;70.94;100907.80;1749466;82;21337;-73
2021/03/22 05:00:26;;;;;;;79.10;28.47;;;;;;;5.47;70.93;100899.72;1746978;82;20221;-76
2021/03/22 05:02:59;;;;;;;70.43;26.40;;;;;;;5.53;70.85;100891.09;1743476;82;21336;-74
2021/03/22 05:05:31;;;;;;;65.90;29.30;;;;;;;5.57;70.76;100893.16;1746976;82;21214;-72
2021/03/22 05:08:07;;;;;;;74.47;29.60;;;;;;;5.59;70.73;100895.19;1747097;82;21340;-74
2021/03/22 05:10:42;;;;;;;77.95;31.15;;;;;;;5.63;70.70;100896.95;1746923;82;21233;-75
2021/03/22 05:13:16;;;;;;;83.17;33.48;;;;;;;5.66;70.71;100890.98;1746928;82;21412;-75
2021/03/22 05:15:49;;;;;;;66.87;28.93;;;;;;;5.67;70.62;100895.45;1746878;82;21341;-75
2021/03/22 05:18:22;;;;;;;82.35;29.37;;;;;;;5.73;70.78;100891.25;1747105;82;21345;-74
2021/03/22 05:20:58;;;;;;;61.45;26.55;;;;;;;5.81;70.83;100879.15;1747321;82;21345;-74
2021/03/22 05:23:32;;;;;;;61.93;27.47;;;;;;;5.89;70.76;100885.74;1747062;82;21349;-74
2021/03/22 05:26:05;;;;;;;63.42;27.82;;;;;;;6.03;70.66;100880.41;1747726;81;21898;-75
2021/03/22 05:28:40;;;;;;;62.20;25.50;;;;;;;6.18;70.45;100883.12;1746835;81;21227;-73
2021/03/22 05:31:13;;;;;;;56.85;27.62;;;;;;;6.30;70.07;100883.23;1746962;81;21195;-73
2021/03/22 05:33:46;;;;;;;71.15;27.42;;;;;;;6.36;69.73;100875.42;1765800;81;21345;-73
2021/03/22 05:36:20;;;;;;;63.33;27.10;;;;;;;6.40;69.42;100869.77;1724647;83;21217;-74
2021/03/22 05:38:53;;;;;;;84.32;32.58;;;;;;;6.38;69.14;100867.23;1726505;83;21845;-72
2021/03/22 05:41:27;;;;;;;59.30;24.32;;;;;;;6.37;68.83;100866.93;1792000;80;21367;-77
2021/03/22 05:44:05;;;;;;;;;;;;;;;6.38;68.11;100865.00;1724531;83;21197;-77
2021/03/22 05:46:54;;;;;;;39.78;17.37;;;;;;;6.35;67.02;100859.41;1742080;82;20534;-76
2021/03/22 05:49:48;;;;;;;27.83;14.30;;;;;;;6.33;66.32;100860.70;1711219;83;21238;-80
2021/03/22 05:52:43;;;;;;;23.95;13.53;;;;;;;6.35;65.56;100862.16;1743558;82;21559;-77
2021/03/22 05:55:47;;;;;;;22.40;13.40;;;;;;;6.34;64.74;100856.90;1714843;83;21735;-77
2021/03/22 05:58:58;;;;;;;26.70;13.22;;;;;;;6.38;64.45;100851.21;1713991;83;21269;-78
2021/03/22 06:01:39;;;;;;;41.13;13.75;;;;;;;6.42;64.30;100848.31;1716544;83;21352;-74
2021/03/22 06:04:37;;;;;;;21.37;13.28;;;;;;;6.49;63.94;100839.42;1697664;84;21367;-75
2021/03/22 06:07:15;;;;;;;16.60;11.55;;;;;;;6.57;63.63;100847.37;1697528;84;21214;-77
2021/03/22 06:10:08;;;;;;;18.32;10.80;;;;;;;6.64;63.31;100850.36;1726110;83;21803;-75
2021/03/22 06:12:57;;;;;;;19.12;11.90;;;;;;;6.69;62.69;100851.89;1708442;83;21332;-76
2021/03/22 06:15:40;;;;;;;18.87;11.22;;;;;;;6.70;62.42;100843.06;1697818;84;21360;-76
2021/03/22 06:18:42;;;;;;;18.73;11.20;;;;;;;6.71;62.01;100847.54;1713545;83;21348;-77
2021/03/22 06:21:15;;;;;;;23.90;12.65;;;;;;;6.70;62.09;100844.45;1684946;85;21822;-78
2021/03/22 06:23:50;;;;;;;28.45;13.45;;;;;;;6.72;62.03;100849.22;1695060;83;21344;-77
2021/03/22 06:26:43;;;;;;;20.75;11.10;;;;;;;6.74;62.11;100845.67;1697737;84;21881;-75
2021/03/22 06:29:37;;;;;;;33.63;12.23;;;;;;;6.77;62.13;100842.47;1705439;83;21838;-77
2021/03/22 06:32:21;;;;;;;30.77;12.15;;;;;;;6.84;62.32;100844.59;1700853;83;21340;-76
2021/03/22 06:35:02;;;;;;;21.80;12.15;;;;;;;6.88;62.23;100834.77;1698258;84;21443;-75
2021/03/22 06:37:37;;;;;;;23.95;13.15;;;;;;;6.89;62.18;100833.72;1716533;83;21254;-74
2021/03/22 06:40:29;;;;;;;26.57;12.82;;;;;;;6.90;62.19;100836.22;1716499;83;21207;-74
2021/03/22 06:43:15;;;;;;;21.25;11.28;;;;;;;6.91;61.92;100839.27;1716636;83;21415;-78
2021/03/22 06:45:54;;;;;;;21.45;10.90;;;;;;;6.88;61.70;100833.37;1727046;83;21750;-75
2021/03/22 06:48:30;;;;;;;18.67;11.70;;;;;;;6.84;61.80;100832.19;1716483;83;21424;-74
2021/03/22 06:51:07;;;;;;;20.45;11.57;;;;;;;6.87;61.98;100831.70;1726977;83;21226;-73
2021/03/22 06:53:52;;;;;;;18.57;10.08;;;;;;;6.91;62.20;100826.86;1716632;83;21214;-74
2021/03/22 06:56:34;;;;;;;19.45;10.38;;;;;;;6.95;62.33;100834.16;1699179;83;21416;-75
2021/03/22 06:59:23;;;;;;;14.87;9.73;;;;;;;6.97;62.50;100830.06;1726402;83;21742;-73
2021/03/22 07:01:51;;;;;;;;;;;;;;;7.01;62.64;100833.23;1729872;83;21197;-74
2021/03/22 07:04:30;;;;;;;23.07;13.30;;;;;;;6.97;63.12;100832.00;1727650;83;20496;-75
2021/03/22 07:07:21;;;;;;;28.02;12.50;;;;;;;6.92;63.45;100838.23;1727778;83;21265;-74
2021/03/22 07:10:01;;;;;;;18.90;11.30;;;;;;;6.98;63.78;100840.58;1727601;83;21206;-74
2021/03/22 07:12:37;;;;;;;18.62;9.90;;;;;;;7.01;63.92;100844.27;1727439;83;21348;-71
2021/03/22 07:15:36;;;;;;;20.35;12.33;;;;;;;7.08;64.10;100843.07;1727496;83;21213;-74
2021/03/22 07:18:19;;;;;;;22.32;11.53;;;;;;;7.10;64.18;100849.22;1726700;83;21202;-74
2021/03/22 07:21:04;;;;;;;17.40;10.95;;;;;;;7.15;64.40;100860.94;1727493;83;21289;-76
2021/03/22 07:24:08;;;;;;;18.27;11.18;;;;;;;7.18;64.44;100865.97;1727853;83;21707;-75
2021/03/22 07:27:26;;;;;;;23.02;11.53;;;;;;;7.21;64.38;100860.00;1688175;83;21758;-77
2021/03/22 07:30:09;;;;;;;23.10;11.60;;;;;;;7.23;64.53;100866.41;1727550;83;21738;-73
2021/03/22 07:33:07;;;;;;;22.20;11.78;;;;;;;7.25;64.56;100859.28;1727691;83;21186;-75
2021/03/22 07:36:04;;;;;;;22.00;12.78;;;;;;;7.24;64.78;100852.09;1727151;83;21652;-76
2021/03/22 07:39:15;;;;;;;28.62;11.93;;;;;;;7.28;65.09;100852.75;1727557;83;21563;-75
2021/03/22 07:42:19;;;;;;;19.50;11.97;;;;;;;7.30;64.93;100847.83;1727460;83;21249;-75
2021/03/22 07:45:15;;;;;;;22.70;11.30;;;;;;;7.32;64.71;100844.84;1727535;83;21190;-75
2021/03/22 07:48:16;;;;;;;21.02;10.32;;;;;;;7.29;64.27;100845.33;1723570;83;21222;-75
2021/03/22 07:51:06;;;;;;;14.87;9.58;;;;;;;7.29;63.81;100839.80;1698466;84;21348;-80
2021/03/22 07:54:08;;;;;;;17.45;11.20;;;;;;;7.27;63.22;100836.97;1698826;84;21311;-78
2021/03/22 07:57:22;;;;;;;21.75;11.03;;;;;;;7.24;63.27;100832.76;1723732;83;21356;-76
2021/03/22 08:00:20;;;;;;;20.17;11.48;;;;;;;7.20;63.45;100835.67;1687717;85;21282;-77
2021/03/22 08:03:07;;;;;;;24.25;11.60;;;;;;;7.23;63.92;100837.13;1762763;81;21707;-78
2021/03/22 08:06:24;;;;;;;18.10;11.18;;;;;;;7.26;64.08;100831.16;1706493;83;21233;-74
2021/03/22 08:09:22;;;;;;;26.90;11.70;;;;;;;7.28;64.04;100838.13;1738519;81;21241;-75
2021/03/22 08:12:33;;;;;;;21.05;11.35;;;;;;;7.36;64.05;100839.98;1742437;81;21170;-75
2021/03/22 08:15:17;;;;;;;19.15;10.68;;;;;;;7.48;63.77;100842.79;1703062;83;21228;-74
2021/03/22 08:18:22;;;;;;;18.73;9.60;;;;;;;7.63;63.05;100841.78;1749202;81;21786;-74
2021/03/22 08:21:22;;;;;;;17.12;8.90;;;;;;;7.67;61.71;100834.71;1751985;81;21372;-75
2021/03/22 08:24:07;;;;;;;16.27;9.60;;;;;;;7.67;60.84;100831.42;1744801;81;21369;-73
2021/03/22 08:26:56;;;;;;;16.45;8.98;;;;;;;7.63;59.66;100827.97;1749827;81;21337;-72
2021/03/22 08:29:32;;;;;;;20.82;9.93;;;;;;;7.57;59.63;100822.02;1747301;81;21175;-72
2021/03/22 08:32:42;;;;;;;17.30;10.43;;;;;;;7.60;58.96;100817.41;1750657;81;21261;-72
2021/03/22 08:35:41;;;;;;;19.65;8.73;;;;;;;7.64;58.40;100818.07;1754603;81;21313;-73
2021/03/22 08:38:26;;;;;;;14.18;9.35;;;;;;;7.72;57.14;100813.56;1746318;82;21263;-72
2021/03/22 08:41:00;;;;;;;17.42;9.25;;;;;;;7.73;55.95;100817.19;1748823;81;21676;-73
2021/03/22 08:43:58;;;;;;;21.85;8.78;;;;;;;7.80;55.64;100815.14;1748021;81;21339;-72
2021/03/22 08:47:08;;;;;;;15.20;8.15;;;;;;;7.85;55.40;100806.41;1706621;83;21607;-74
2021/03/22 08:49:58;;;;;;;16.97;9.33;;;;;;;7.89;54.88;100809.57;1696998;82;21200;-73
2021/03/22 08:52:33;;;;;;;21.10;9.58;;;;;;;7.85;54.36;100820.23;1750520;81;21337;-72
2021/03/22 08:55:20;;;;;;;21.02;9.10;;;;;;;7.86;54.42;100802.59;1719941;83;21475;-75
2021/03/22 08:58:10;;;;;;;17.82;8.98;;;;;;;7.87;54.18;100808.42;1706676;83;21205;-74
2021/03/22 09:00:45;;;;;;;16.45;8.83;;;;;;;7.90;53.68;100810.69;1727133;82;21242;-74
2021/03/22 09:03:38;;;;;;;16.07;7.83;;;;;;;7.95;51.67;100801.14;1743888;82;21263;-74
2021/03/22 09:06:27;;;;;;;32.10;11.88;;;;;;;7.96;51.21;100805.58;1747212;82;21826;-74
2021/03/22 09:09:14;;;;;;;21.57;10.30;;;;;;;7.93;53.35;100806.08;1747420;82;21946;-74
2021/03/22 09:11:51;;;;;;;15.70;9.78;;;;;;;7.92;54.37;100802.16;1745370;82;21832;-72
2021/03/22 09:14:43;;;;;;;16.87;9.73;;;;;;;7.87;54.70;100798.75;1747773;82;21700;-74
2021/03/22 09:17:51;;;;;;;15.90;9.35;;;;;;;7.80;54.95;100800.80;1730666;81;21341;-74
2021/03/22 09:20:30;;;;;;;13.45;8.70;;;;;;;7.70;55.45;100803.83;1747517;82;21192;-74
2021/03/22 09:23:08;;;;;;;15.35;8.13;;;;;;;7.61;56.06;100801.12;1747779;82;21212;-73
2021/03/22 09:25:56;;;;;;;27.30;10.90;;;;;;;7.59;56.67;100799.98;1744703;82;21709;-73
2021/03/22 09:28:33;;;;;;;22.22;8.43;;;;;;;7.60;57.01;100790.61;1747639;82;21207;-74
2021/03/22 09:31:18;;;;;;;18.50;8.18;;;;;;;7.63;56.49;100789.29;1700731;84;21352;-75
2021/03/22 09:34:05;;;;;;;11.57;7.00;;;;;;;7.60;55.70;100793.93;1747716;82;21215;-75
2021/03/22 09:36:40;;;;;;;10.82;6.45;;;;;;;7.55;53.95;100790.52;1747794;82;21211;-74
2021/03/22 09:39:18;;;;;;;8.43;5.90;;;;;;;7.54;52.85;100796.27;1747695;82;21824;-73
2021/03/22 09:42:20;;;;;;;12.35;6.45;;;;;;;7.48;52.36;100787.55;1679282;84;21364;-74
2021/03/22 09:45:00;;;;;;;11.68;5.78;;;;;;;7.46;52.05;100780.88;1747639;82;21219;-76
2021/03/22 09:47:35;;;;;;;16.45;6.78;;;;;;;7.40;51.64;100776.83;1695260;84;21233;-74
2021/03/22 09:50:25;;;;;;;12.37;5.83;;;;;;;7.41;51.49;100783.50;1747642;82;21361;-75
2021/03/22 09:53:40;;;;;;;9.93;5.60;;;;;;;7.46;50.70;100783.64;1747593;82;21809;-74
2021/03/22 09:56:15;;;;;;;;;;;;;;;7.42;50.52;100781.03;1703448;84;21750;-74
2021/03/22 09:58:48;;;;;;;9.30;5.08;;;;;;;7.41;50.43;100779.36;1698748;84;20253;-75
2021/03/22 10:01:40;;;;;;;7.80;5.33;;;;;;;7.39;50.25;100773.24;1755541;80;21211;-76
2021/03/22 10:04:27;;;;;;;9.18;5.15;;;;;;;7.37;50.06;100773.17;1718234;83;21187;-74
2021/03/22 10:07:09;;;;;;;7.80;5.10;;;;;;;7.28;49.91;100765.48;1757813;81;21322;-72
2021/03/22 10:09:46;;;;;;;9.18;4.28;;;;;;;7.23;50.11;100765.64;1717812;83;21407;-74
2021/03/22 10:12:29;;;;;;;7.03;5.05;;;;;;;7.23;50.59;100765.34;1760460;81;21374;-76
2021/03/22 10:15:16;;;;;;;13.00;6.17;;;;;;;7.24;50.69;100763.17;1715734;83;21206;-73
2021/03/22 10:18:08;;;;;;;7.60;5.62;;;;;;;7.29;51.02;100764.69;1760429;81;21329;-76
2021/03/22 10:20:44;;;;;;;7.87;5.37;;;;;;;7.36;50.28;100761.27;1717933;83;21348;-75
2021/03/22 10:23:42;;;;;;;9.95;5.72;;;;;;;7.42;49.90;100766.41;1760424;81;21325;-75
2021/03/22 10:26:42;;;;;;;10.65;5.95;;;;;;;7.45;49.61;100759.01;1650577;83;21806;-75
2021/03/22 10:29:28;;;;;;;10.23;6.10;;;;;;;7.41;50.06;100764.17;1760153;81;21330;-73
2021/03/22 10:32:24;;;;;;;9.03;5.62;;;;;;;7.39;49.28;100759.44;1717823;83;21273;-75
2021/03/22 10:34:56;;;;;;;11.40;6.20;;;;;;;7.32;49.08;100765.31;1757635;81;21413;-74
2021/03/22 10:37:33;;;;;;;8.35;5.83;;;;;;;7.24;49.26;100767.88;1717914;83;21211;-75
2021/03/22 10:40:17;;;;;;;12.90;6.80;;;;;;;7.20;49.94;100758.94;1760430;81;21212;-74
2021/03/22 10:43:10;;;;;;;13.62;5.42;;;;;;;7.16;50.73;100753.57;1759053;81;21350;-75
2021/03/22 10:45:45;;;;;;;17.98;6.97;;;;;;;7.18;51.32;100752.78;1667290;86;21391;-73
2021/03/22 10:48:28;;;;;;;10.53;5.97;;;;;;;7.18;50.92;100753.64;1732262;83;21823;-75
2021/03/22 10:51:19;;;;;;;9.28;5.87;;;;;;;7.18;50.96;100744.50;1718746;83;21381;-73
2021/03/22 10:54:01;;;;;;;14.90;6.60;;;;;;;7.17;50.84;100745.06;1700062;83;21775;-73
2021/03/22 10:56:37;;;;;;;11.63;6.10;;;;;;;7.17;50.74;100755.25;1714394;83;21397;-72
2021/03/22 10:59:32;;;;;;;12.43;6.12;;;;;;;7.13;50.60;100747.98;1714766;83;21321;-71
2021/03/22 11:02:28;;;;;;;9.83;6.42;;;;;;;7.11;50.90;100741.87;1697101;83;21854;-73
2021/03/22 11:05:12;;;;;;;10.55;6.45;;;;;;;7.13;50.97;100739.70;1704942;83;21193;-70
2021/03/22 11:08:01;;;;;;;12.70;6.65;;;;;;;7.13;51.35;100736.94;1690597;84;21223;-71
2021/03/22 11:10:35;;;;;;;9.98;6.58;;;;;;;7.06;51.56;100728.45;1690365;83;21321;-70
2021/03/22 11:13:09;;;;;;;11.90;7.20;;;;;;;7.02;51.79;100723.12;1719027;83;21807;-73
2021/03/22 11:15:41;;;;;;;16.45;7.08;;;;;;;7.00;51.67;100723.88;1718682;83;21413;-70
2021/03/22 11:18:17;;;;;;;18.60;7.53;;;;;;;7.00;51.98;100715.08;1718820;83;21338;-73
2021/03/22 11:20:54;;;;;;;12.98;6.87;;;;;;;7.06;52.61;100709.14;1688616;84;21375;-70
2021/03/22 11:23:42;;;;;;;12.85;6.60;;;;;;;7.15;52.77;100717.39;1688487;85;21219;-70
2021/03/22 11:26:26;;;;;;;19.25;7.25;;;;;;;7.23;51.64;100708.75;1688494;84;21227;-73
2021/03/22 11:29:25;;;;;;;8.35;5.90;;;;;;;7.28;51.55;100708.34;1688640;85;21322;-76
2021/03/22 11:32:05;;;;;;;23.10;7.85;;;;;;;7.36;51.50;100714.33;1691162;83;21235;-75
2021/03/22 11:34:44;;;;;;;12.98;7.28;;;;;;;7.38;51.08;100719.63;1713811;83;21461;-71
2021/03/22 11:37:33;;;;;;;9.63;6.35;;;;;;;7.37;51.28;100712.42;1710718;83;21226;-74
2021/03/22 11:40:15;;;;;;;9.48;6.55;;;;;;;7.34;50.96;100716.50;1703270;83;21414;-69
2021/03/22 11:43:01;;;;;;;21.02;6.58;;;;;;;7.28;51.41;100714.40;1689939;84;21195;-75
2021/03/22 11:45:49;;;;;;;12.50;7.05;;;;;;;7.18;51.82;100713.05;1705302;83;21480;-70
2021/03/22 11:48:28;;;;;;;9.25;5.78;;;;;;;7.13;52.33;100711.23;1667604;85;21273;-72
2021/03/22 11:51:05;;;;;;;9.45;6.50;;;;;;;7.07;52.92;100712.19;1745151;82;21344;-71
2021/03/22 11:54:07;;;;;;;11.63;6.42;;;;;;;7.02;52.88;100709.33;1719707;82;21377;-71
2021/03/22 11:56:43;;;;;;;20.65;7.97;;;;;;;6.99;53.07;100714.78;1715808;83;21214;-73
2021/03/22 11:59:23;;;;;;;17.75;8.43;;;;;;;6.97;53.33;100712.77;1717850;83;21191;-72
2021/03/22 12:02:23;;;;;;;14.47;7.22;;;;;;;6.98;53.65;100713.62;1715499;83;21724;-75
2021/03/22 12:05:06;;;;;;;11.53;6.85;;;;;;;6.99;53.89;100708.41;1715723;83;21368;-71
2021/03/22 12:07:48;;;;;;;12.45;7.25;;;;;;;6.98;54.27;100706.73;1715540;83;21352;-71
2021/03/22 12:10:28;;;;;;;15.93;7.45;;;;;;;6.95;54.38;100703.08;1715611;83;21665;-72
2021/03/22 12:13:03;;;;;;;16.23;6.75;;;;;;;6.90;54.61;100707.91;1715498;83;21352;-71
2021/03/22 12:15:36;;;;;;;9.20;6.10;;;;;;;6.85;54.94;100702.80;1715533;83;21826;-77
2021/03/22 12:18:10;;;;;;;11.20;6.67;;;;;;;6.83;55.33;100704.41;1715510;83;21360;-73
2021/03/22 12:20:43;;;;;;;8.50;6.12;;;;;;;6.77;55.54;100694.32;1715707;83;21748;-84
2021/03/22 12:23:16;;;;;;;8.98;6.40;;;;;;;6.72;56.00;100696.12;1715437;83;21249;-74
2021/03/22 12:25:49;;;;;;;11.05;7.15;;;;;;;6.66;56.21;100693.74;1717669;82;21762;-78
2021/03/22 12:28:21;;;;;;;13.62;7.40;;;;;;;6.58;56.70;100689.09;1716806;83;21234;-75
2021/03/22 12:30:54;;;;;;;11.50;7.05;;;;;;;6.55;57.28;100686.82;1715518;83;21336;-77